Time;durP1;ratioP1;P1;durP2;ratioP2;P2;SDS_P1;SDS_P2;PMS_P1;PMS_P2;Temp;Humidity;BMP_temperature;BMP_pressure;BME280_temperature;BME280_humidity;BME280_pressure;Samples;Min_cycle;Max_cycle;Signal;HPM_P1;HPM_P2
2022/03/28 00:00:15;;;;;;;;;;;;;;;;;;4984986;28;20320;-62
2022/03/28 00:02:44;;;;;;;;;;;;;;;;;;4987784;28;20452;-62
2022/03/28 00:05:10;;;;;;;;;;;;;;;;;;4987036;28;19929;-63
2022/03/28 00:07:36;;;;;;;;;;;;;;;;;;4983467;28;19960;-63
2022/03/28 00:10:02;;;;;;;;;;;;;;;;;;4984713;28;19941;-61
2022/03/28 00:12:28;;;;;;;;;;;;;;;;;;4986393;28;19958;-62
2022/03/28 00:14:54;;;;;;;;;;;;;;;;;;4987749;28;19954;-61
2022/03/28 00:17:20;;;;;;;;;;;;;;;;;;4987230;28;19948;-60
2022/03/28 00:19:47;;;;;;;;;;;;;;;;;;4989008;28;21431;-60
2022/03/28 00:22:13;;;;;;;;;;;;;;;;;;4988538;28;19943;-60
2022/03/28 00:24:39;;;;;;;;;;;;;;;;;;4986595;28;19960;-60
2022/03/28 00:27:05;;;;;;;;;;;;;;;;;;4985917;28;20060;-61
2022/03/28 00:29:31;;;;;;;;;;;;;;;;;;4984548;28;19943;-63
2022/03/28 00:31:57;;;;;;;;;;;;;;;;;;4989175;28;20312;-62
2022/03/28 00:34:23;;;;;;;;;;;;;;;;;;4987108;28;20108;-62
2022/03/28 00:36:50;;;;;;;;;;;;;;;;;;4988094;28;19937;-62
2022/03/28 00:39:19;;;;;;;;;;;;;;;;;;4983381;28;19992;-60
2022/03/28 00:41:45;;;;;;;;;;;;;;;;;;4985093;28;19948;-63
2022/03/28 00:44:11;;;;;;;;;;;;;;;;;;4988889;28;19972;-64
2022/03/28 00:46:37;;;;;;;;;;;;;;;;;;4985245;28;19956;-63
2022/03/28 00:49:03;;;;;;;;;;;;;;;;;;4983709;28;19944;-63
2022/03/28 00:51:29;;;;;;;;;;;;;;;;;;4985483;28;20188;-65
2022/03/28 00:53:56;;;;;;;;;;;;;;;;;;4987965;28;19929;-65
2022/03/28 00:56:22;;;;;;;;;;;;;;;;;;4982435;28;19960;-65
2022/03/28 00:58:48;;;;;;;;;;;;;;;;;;4985882;28;19950;-67
2022/03/28 01:01:14;;;;;;;;;;;;;;;;;;4987679;28;19969;-63
2022/03/28 01:03:40;;;;;;;;;;;;;;;;;;4989208;28;20120;-69
2022/03/28 01:06:07;;;;;;;;;;;;;;;;;;4982832;28;19926;-62
2022/03/28 01:08:33;;;;;;;;;;;;;;;;;;4985544;28;19958;-62
2022/03/28 01:11:00;;;;;;;;;;;;;;;;;;4984838;28;20035;-61
2022/03/28 01:13:26;;;;;;;;;;;;;;;;;;4987122;28;19938;-62
2022/03/28 01:15:52;;;;;;;;;;;;;;;;;;4984810;28;20009;-61
2022/03/28 01:18:19;;;;;;;;;;;;;;;;;;4987932;28;20409;-61
2022/03/28 01:20:45;;;;;;;;;;;;;;;;;;4982253;28;19925;-62
2022/03/28 01:23:11;;;;;;;;;;;;;;;;;;4987026;28;20410;-62
2022/03/28 01:25:37;;;;;;;;;;;;;;;;;;4981691;28;19959;-64
2022/03/28 01:28:03;;;;;;;;;;;;;;;;;;4983385;28;19965;-62
2022/03/28 01:30:30;;;;;;;;;;;;;;;;;;4986923;28;19977;-61
2022/03/28 01:32:56;;;;;;;;;;;;;;;;;;4985821;28;19974;-61
2022/03/28 01:35:22;;;;;;;;;;;;;;;;;;4985497;28;19983;-61
2022/03/28 01:37:48;;;;;;;;;;;;;;;;;;4982938;28;19983;-61
2022/03/28 01:40:15;;;;;;;;;;;;;;;;;;4984128;28;20359;-60
2022/03/28 01:42:41;;;;;;;;;;;;;;;;;;4986459;28;20329;-60
2022/03/28 01:45:08;;;;;;;;;;;;;;;;;;4987421;28;20009;-60
2022/03/28 01:47:34;;;;;;;;;;;;;;;;;;4986483;28;19976;-59
2022/03/28 01:50:00;;;;;;;;;;;;;;;;;;4981947;28;19963;-59
2022/03/28 01:52:26;;;;;;;;;;;;;;;;;;4988506;28;19930;-61
2022/03/28 01:54:53;;;;;;;;;;;;;;;;;;4987281;28;19932;-60
2022/03/28 01:57:19;;;;;;;;;;;;;;;;;;4985005;28;19972;-59
2022/03/28 01:59:45;;;;;;;;;;;;;;;;;;4988165;28;20422;-61
2022/03/28 02:02:11;;;;;;;;;;;;;;;;;;4985082;28;19942;-61
2022/03/28 02:04:37;;;;;;;;;;;;;;;;;;4985413;28;19954;-60
2022/03/28 02:07:03;;;;;;;;;;;;;;;;;;4985920;28;19973;-61
2022/03/28 02:09:30;;;;;;;;;;;;;;;;;;4987466;28;19926;-61
2022/03/28 02:11:56;;;;;;;;;;;;;;;;;;4985392;28;20385;-61
2022/03/28 02:14:22;;;;;;;;;;;;;;;;;;4986536;28;20332;-63
2022/03/28 02:16:48;;;;;;;;;;;;;;;;;;4988327;28;20290;-65
2022/03/28 02:19:14;;;;;;;;;;;;;;;;;;4987077;28;19943;-65
2022/03/28 02:21:40;;;;;;;;;;;;;;;;;;4987191;28;19947;-65
2022/03/28 02:24:06;;;;;;;;;;;;;;;;;;4988348;28;20298;-65
2022/03/28 02:26:32;;;;;;;;;;;;;;;;;;4985950;28;20414;-65
2022/03/28 02:28:59;;;;;;;;;;;;;;;;;;4988509;28;19981;-65
2022/03/28 02:31:25;;;;;;;;;;;;;;;;;;4990407;28;19944;-65
2022/03/28 02:33:51;;;;;;;;;;;;;;;;;;4989879;28;19929;-66
2022/03/28 02:36:17;;;;;;;;;;;;;;;;;;4988523;28;19926;-65
2022/03/28 02:38:43;;;;;;;;;;;;;;;;;;4989040;28;19939;-66
2022/03/28 02:41:09;;;;;;;;;;;;;;;;;;4984785;28;19947;-64
2022/03/28 02:43:35;;;;;;;;;;;;;;;;;;4985847;28;20385;-64
2022/03/28 02:46:02;;;;;;;;;;;;;;;;;;4989237;28;19945;-64
2022/03/28 02:48:28;;;;;;;;;;;;;;;;;;4985452;28;19964;-65
2022/03/28 02:50:54;;;;;;;;;;;;;;;;;;4988788;28;19947;-64
2022/03/28 02:53:20;;;;;;;;;;;;;;;;;;4989098;28;19974;-64
2022/03/28 02:55:47;;;;;;;;;;;;;;;;;;4985979;28;19964;-65
2022/03/28 02:58:13;;;;;;;;;;;;;;;;;;4986648;28;20312;-65
2022/03/28 03:00:39;;;;;;;;;;;;;;;;;;4985907;28;19949;-66
2022/03/28 03:03:05;;;;;;;;;;;;;;;;;;4986850;28;19952;-62
2022/03/28 03:05:31;;;;;;;;;;;;;;;;;;4987514;28;19965;-58
2022/03/28 03:07:57;;;;;;;;;;;;;;;;;;4987214;28;20203;-59
2022/03/28 03:10:24;;;;;;;;;;;;;;;;;;4983273;28;19961;-59
2022/03/28 03:12:50;;;;;;;;;;;;;;;;;;4989054;28;20458;-58
2022/03/28 03:15:16;;;;;;;;;;;;;;;;;;4986785;28;19957;-59
2022/03/28 03:17:42;;;;;;;;;;;;;;;;;;4990418;28;19945;-59
2022/03/28 03:20:08;;;;;;;;;;;;;;;;;;4985586;28;19930;-58
2022/03/28 03:22:34;;;;;;;;;;;;;;;;;;4981942;28;19982;-59
2022/03/28 03:25:00;;;;;;;;;;;;;;;;;;4985502;28;19987;-58
2022/03/28 03:27:26;;;;;;;;;;;;;;;;;;4986503;28;19981;-58
2022/03/28 03:29:53;;;;;;;;;;;;;;;;;;4984739;28;20406;-57
2022/03/28 03:32:19;;;;;;;;;;;;;;;;;;4982705;28;19951;-58
2022/03/28 03:34:45;;;;;;;;;;;;;;;;;;4986455;28;19955;-59
2022/03/28 03:37:11;;;;;;;;;;;;;;;;;;4986616;28;19949;-57
2022/03/28 03:39:37;;;;;;;;;;;;;;;;;;4986622;28;19968;-58
2022/03/28 03:42:04;;;;;;;;;;;;;;;;;;4981839;28;19959;-58
2022/03/28 03:44:30;;;;;;;;;;;;;;;;;;4987679;28;19969;-59
2022/03/28 03:46:56;;;;;;;;;;;;;;;;;;4985510;28;19939;-64
2022/03/28 03:49:22;;;;;;;;;;;;;;;;;;4983030;28;19959;-63
2022/03/28 03:51:48;;;;;;;;;;;;;;;;;;4984022;28;19950;-62
2022/03/28 03:54:14;;;;;;;;;;;;;;;;;;4986923;28;19961;-62
2022/03/28 03:56:41;;;;;;;;;;;;;;;;;;4983420;28;19955;-63
2022/03/28 03:59:07;;;;;;;;;;;;;;;;;;4985252;28;19963;-66
2022/03/28 04:01:33;;;;;;;;;;;;;;;;;;4983111;28;19945;-65
2022/03/28 04:03:59;;;;;;;;;;;;;;;;;;4983732;28;19970;-68
2022/03/28 04:06:25;;;;;;;;;;;;;;;;;;4988006;28;19951;-65
2022/03/28 04:08:52;;;;;;;;;;;;;;;;;;4987993;28;19958;-67
2022/03/28 04:11:18;;;;;;;;;;;;;;;;;;4981106;28;19937;-66
2022/03/28 04:13:44;;;;;;;;;;;;;;;;;;4983634;28;19964;-64
2022/03/28 04:16:10;;;;;;;;;;;;;;;;;;4987620;28;20288;-67
2022/03/28 04:18:36;;;;;;;;;;;;;;;;;;4987966;28;19989;-67
2022/03/28 04:21:03;;;;;;;;;;;;;;;;;;4987929;28;20399;-66
2022/03/28 04:23:29;;;;;;;;;;;;;;;;;;4986112;28;20424;-67
2022/03/28 04:25:55;;;;;;;;;;;;;;;;;;4985027;28;20331;-66
2022/03/28 04:28:21;;;;;;;;;;;;;;;;;;4983740;28;19933;-66
2022/03/28 04:30:47;;;;;;;;;;;;;;;;;;4987812;28;19951;-65
2022/03/28 04:33:13;;;;;;;;;;;;;;;;;;4987191;28;19936;-66
2022/03/28 04:35:41;;;;;;;;;;;;;;;;;;4984835;28;19958;-67
2022/03/28 04:38:07;;;;;;;;;;;;;;;;;;4980568;28;20343;-66
2022/03/28 04:40:35;;;;;;;;;;;;;;;;;;4981851;28;19958;-65
2022/03/28 04:43:01;;;;;;;;;;;;;;;;;;5014188;23;20141;-64
2022/03/28 04:45:28;;;;;;;;;;;;;;;;;;4999340;28;20445;-63
2022/03/28 04:47:54;;;;;;;;;;;;;;;;;;4997410;28;19925;-64
2022/03/28 04:50:20;;;;;;;;;;;;;;;;;;4996114;28;19932;-64
2022/03/28 04:52:46;;;;;;;;;;;;;;;;;;4994807;28;19949;-64
2022/03/28 04:55:12;;;;;;;;;;;;;;;;;;4991668;28;19967;-63
2022/03/28 04:57:39;;;;;;;;;;;;;;;;;;4998966;28;19947;-63
2022/03/28 05:00:06;;;;;;;;;;;;;;;;;;5004408;28;19929;-63
2022/03/28 05:02:32;;;;;;;;;;;;;;;;;;4993639;28;19972;-62
2022/03/28 05:04:58;;;;;;;;;;;;;;;;;;4998716;28;20089;-63
2022/03/28 05:07:24;;;;;;;;;;;;;;;;;;5002365;28;19949;-64
2022/03/28 05:09:50;;;;;;;;;;;;;;;;;;5001141;28;20465;-62
2022/03/28 05:12:17;;;;;;;;;;;;;;;;;;5006953;28;19966;-63
2022/03/28 05:14:43;;;;;;;;;;;;;;;;;;5000212;28;19976;-62
2022/03/28 05:17:09;;;;;;;;;;;;;;;;;;5002865;28;20567;-62
2022/03/28 05:19:35;;;;;;;;;;;;;;;;;;5003855;28;19960;-62
2022/03/28 05:22:01;;;;;;;;;;;;;;;;;;5001945;28;19938;-62
2022/03/28 05:24:27;;;;;;;;;;;;;;;;;;4990169;28;20414;-62
2022/03/28 05:26:54;;;;;;;;;;;;;;;;;;4991078;28;20344;-62
2022/03/28 05:29:23;;;;;;;;;;;;;;;;;;5001524;28;20211;-62
2022/03/28 05:31:50;;;;;;;;;;;;;;;;;;5002754;28;19967;-62
2022/03/28 05:34:16;;;;;;;;;;;;;;;;;;4998942;28;19964;-61
2022/03/28 05:36:42;;;;;;;;;;;;;;;;;;5001753;28;19967;-62
2022/03/28 05:39:08;;;;;;;;;;;;;;;;;;4998812;28;19994;-62
2022/03/28 05:41:34;;;;;;;;;;;;;;;;;;4994835;28;19951;-62
2022/03/28 05:44:00;;;;;;;;;;;;;;;;;;4994291;28;19949;-62
2022/03/28 05:46:27;;;;;;;;;;;;;;;;;;4997284;28;20417;-60
2022/03/28 05:48:53;;;;;;;;;;;;;;;;;;5001730;28;19948;-60
2022/03/28 05:51:19;;;;;;;;;;;;;;;;;;4993200;28;19951;-65
2022/03/28 05:53:45;;;;;;;;;;;;;;;;;;4993683;28;19943;-63
2022/03/28 05:56:11;;;;;;;;;;;;;;;;;;4994897;28;19957;-60
2022/03/28 05:58:37;;;;;;;;;;;;;;;;;;5001590;28;19933;-59
2022/03/28 06:01:04;;;;;;;;;;;;;;;;;;4992914;28;19945;-59
2022/03/28 06:03:30;;;;;;;;;;;;;;;;;;4998586;28;19962;-60
2022/03/28 06:05:56;;;;;;;;;;;;;;;;;;5003552;28;19944;-60
2022/03/28 06:08:22;;;;;;;;;;;;;;;;;;4993574;28;19972;-60
2022/03/28 06:10:48;;;;;;;;;;;;;;;;;;5000253;28;19946;-60
2022/03/28 06:13:16;;;;;;;;;;;;;;;;;;4998683;28;19962;-59
2022/03/28 06:15:43;;;;;;;;;;;;;;;;;;4999202;28;19957;-58
2022/03/28 06:18:10;;;;;;;;;;;;;;;;;;5000019;28;20412;-57
2022/03/28 06:20:36;;;;;;;;;;;;;;;;;;4999899;28;20339;-57
2022/03/28 06:23:02;;;;;;;;;;;;;;;;;;4995708;28;19944;-57
2022/03/28 06:25:28;;;;;;;;;;;;;;;;;;4993439;28;20457;-57
2022/03/28 06:27:55;;;;;;;;;;;;;;;;;;4995020;28;19942;-59
2022/03/28 06:30:21;;;;;;;;;;;;;;;;;;4998421;28;19967;-59
2022/03/28 06:32:47;;;;;;;;;;;;;;;;;;4998378;28;20020;-57
2022/03/28 06:35:13;;;;;;;;;;;;;;;;;;4998347;28;20015;-58
2022/03/28 06:37:39;;;;;;;;;;;;;;;;;;4991385;28;19950;-57
2022/03/28 06:40:05;;;;;;;;;;;;;;;;;;4990919;28;20211;-58
2022/03/28 06:42:32;;;;;;;;;;;;;;;;;;4991264;28;20430;-57
2022/03/28 06:44:58;;;;;;;;;;;;;;;;;;4997466;28;19988;-61
2022/03/28 06:47:25;;;;;;;;;;;;;;;;;;4989472;28;19957;-60
2022/03/28 06:49:51;;;;;;;;;;;;;;;;;;4991420;28;20001;-60
2022/03/28 06:52:17;;;;;;;;;;;;;;;;;;4989230;28;20449;-60
2022/03/28 06:54:43;;;;;;;;;;;;;;;;;;4990919;28;19959;-60
2022/03/28 06:57:09;;;;;;;;;;;;;;;;;;4991877;28;19945;-63
2022/03/28 06:59:35;;;;;;;;;;;;;;;;;;4999781;28;19939;-63
2022/03/28 07:02:02;;;;;;;;;;;;;;;;;;4998191;28;20051;-63
2022/03/28 07:04:28;;;;;;;;;;;;;;;;;;5007477;28;20330;-63
2022/03/28 07:06:54;;;;;;;;;;;;;;;;;;5006194;28;19940;-63
2022/03/28 07:09:20;;;;;;;;;;;;;;;;;;5008106;28;20081;-63
2022/03/28 07:11:46;;;;;;;;;;;;;;;;;;5012726;28;19960;-64
2022/03/28 07:14:12;;;;;;;;;;;;;;;;;;5024666;28;19971;-64
2022/03/28 07:16:39;;;;;;;;;;;;;;;;;;5008276;28;19959;-65
2022/03/28 07:19:05;;;;;;;;;;;;;;;;;;5015426;28;19966;-64
2022/03/28 07:21:31;;;;;;;;;;;;;;;;;;5011786;28;19967;-64
2022/03/28 07:23:57;;;;;;;;;;;;;;;;;;5016316;28;19953;-64
2022/03/28 07:26:23;;;;;;;;;;;;;;;;;;5007416;28;20390;-64
2022/03/28 07:28:49;;;;;;;;;;;;;;;;;;5011486;28;19929;-64
2022/03/28 07:31:17;;;;;;;;;;;;;;;;;;5005147;28;19956;-65
2022/03/28 07:33:44;;;;;;;;;;;;;;;;;;5002782;28;19950;-65
2022/03/28 07:36:10;;;;;;;;;;;;;;;;;;4996496;28;19948;-65
2022/03/28 07:38:36;;;;;;;;;;;;;;;;;;4999367;28;19944;-65
2022/03/28 07:41:03;;;;;;;;;;;;;;;;;;4992151;28;19939;-65
2022/03/28 07:43:29;;;;;;;;;;;;;;;;;;4997632;28;19963;-64
2022/03/28 07:45:55;;;;;;;;;;;;;;;;;;4998770;28;19950;-64
2022/03/28 07:48:22;;;;;;;;;;;;;;;;;;4993895;28;20401;-64
2022/03/28 07:50:49;;;;;;;;;;;;;;;;;;4997507;28;19944;-61
2022/03/28 07:53:15;;;;;;;;;;;;;;;;;;4996661;28;19925;-61
2022/03/28 07:55:42;;;;;;;;;;;;;;;;;;4988398;28;20021;-62
2022/03/28 07:58:08;;;;;;;;;;;;;;;;;;4991331;28;19958;-63
2022/03/28 08:00:34;;;;;;;;;;;;;;;;;;4998544;28;19945;-63
2022/03/28 08:03:00;;;;;;;;;;;;;;;;;;4997006;28;20301;-63
2022/03/28 08:05:27;;;;;;;;;;;;;;;;;;4989550;28;19960;-62
2022/03/28 08:07:53;;;;;;;;;;;;;;;;;;4999611;28;19942;-62
2022/03/28 08:10:19;;;;;;;;;;;;;;;;;;4992993;28;19978;-62
2022/03/28 08:12:45;;;;;;;;;;;;;;;;;;5000479;28;19967;-62
2022/03/28 08:15:11;;;;;;;;;;;;;;;;;;4991691;28;19972;-63
2022/03/28 08:17:38;;;;;;;;;;;;;;;;;;4999996;28;19951;-61
2022/03/28 08:20:04;;;;;;;;;;;;;;;;;;5000546;28;19937;-63
2022/03/28 08:22:30;;;;;;;;;;;;;;;;;;4997165;28;19946;-61
2022/03/28 08:24:56;;;;;;;;;;;;;;;;;;4993707;28;19926;-60
2022/03/28 08:27:22;;;;;;;;;;;;;;;;;;4995825;28;19943;-62
2022/03/28 08:29:48;;;;;;;;;;;;;;;;;;4989732;28;20472;-61
2022/03/28 08:32:15;;;;;;;;;;;;;;;;;;4988905;28;19968;-62
2022/03/28 08:34:41;;;;;;;;;;;;;;;;;;4987961;28;19971;-61
2022/03/28 08:37:09;;;;;;;;;;;;;;;;;;4990774;28;19993;-61
2022/03/28 08:39:36;;;;;;;;;;;;;;;;;;4990215;28;20021;-61
2022/03/28 08:42:02;;;;;;;;;;;;;;;;;;4988553;28;19933;-61
2022/03/28 08:44:28;;;;;;;;;;;;;;;;;;4991094;28;20010;-61
2022/03/28 08:46:55;;;;;;;;;;;;;;;;;;4987610;28;20373;-61
2022/03/28 08:49:21;;;;;;;;;;;;;;;;;;4989507;28;20055;-61
2022/03/28 08:51:47;;;;;;;;;;;;;;;;;;4989361;28;20045;-61
2022/03/28 08:54:13;;;;;;;;;;;;;;;;;;4990503;28;19962;-62
2022/03/28 08:56:39;;;;;;;;;;;;;;;;;;4990151;28;19959;-61
2022/03/28 08:59:05;;;;;;;;;;;;;;;;;;4987955;28;19980;-64
2022/03/28 09:01:32;;;;;;;;;;;;;;;;;;4991867;28;19951;-63
2022/03/28 09:03:58;;;;;;;;;;;;;;;;;;4990076;28;19990;-63
2022/03/28 09:06:24;;;;;;;;;;;;;;;;;;4990021;28;19974;-62
2022/03/28 09:08:50;;;;;;;;;;;;;;;;;;4989825;28;19977;-60
2022/03/28 09:11:17;;;;;;;;;;;;;;;;;;4988856;28;19949;-63
2022/03/28 09:13:43;;;;;;;;;;;;;;;;;;4990028;28;20066;-62
2022/03/28 09:16:09;;;;;;;;;;;;;;;;;;4989665;28;20459;-63
2022/03/28 09:18:35;;;;;;;;;;;;;;;;;;4991184;28;19968;-62
2022/03/28 09:21:02;;;;;;;;;;;;;;;;;;4990131;28;19943;-62
2022/03/28 09:23:28;;;;;;;;;;;;;;;;;;4998518;28;20057;-62
2022/03/28 09:25:54;;;;;;;;;;;;;;;;;;4989825;28;20411;-63
2022/03/28 09:28:20;;;;;;;;;;;;;;;;;;4995995;28;19925;-63
2022/03/28 09:30:46;;;;;;;;;;;;;;;;;;4997998;28;19968;-62
2022/03/28 09:33:16;;;;;;;;;;;;;;;;;;4992656;28;19946;-62
2022/03/28 09:35:42;;;;;;;;;;;;;;;;;;4994658;28;19961;-62
2022/03/28 09:38:08;;;;;;;;;;;;;;;;;;4994512;28;20224;-63
2022/03/28 09:40:35;;;;;;;;;;;;;;;;;;4993720;28;19944;-62
2022/03/28 09:43:01;;;;;;;;;;;;;;;;;;4993517;28;19948;-62
2022/03/28 09:45:27;;;;;;;;;;;;;;;;;;4993499;28;19934;-62
2022/03/28 09:47:54;;;;;;;;;;;;;;;;;;4985107;28;19970;-64
2022/03/28 09:50:20;;;;;;;;;;;;;;;;;;4994146;28;19925;-63
2022/03/28 09:52:46;;;;;;;;;;;;;;;;;;4991959;28;19926;-63
2022/03/28 09:55:12;;;;;;;;;;;;;;;;;;4994211;28;19969;-62
2022/03/28 09:57:38;;;;;;;;;;;;;;;;;;4992470;28;19937;-63
2022/03/28 10:00:04;;;;;;;;;;;;;;;;;;4990643;28;19963;-62
2022/03/28 10:02:30;;;;;;;;;;;;;;;;;;4994225;28;19959;-62
2022/03/28 10:04:57;;;;;;;;;;;;;;;;;;4997812;28;20346;-63
2022/03/28 10:07:23;;;;;;;;;;;;;;;;;;4993857;28;20179;-64
2022/03/28 10:09:51;;;;;;;;;;;;;;;;;;4993723;28;19926;-63
2022/03/28 10:12:17;;;;;;;;;;;;;;;;;;4994880;28;19933;-63
2022/03/28 10:14:44;;;;;;;;;;;;;;;;;;4993288;28;19926;-62
2022/03/28 10:17:10;;;;;;;;;;;;;;;;;;4993254;28;19968;-62
2022/03/28 10:19:37;;;;;;;;;;;;;;;;;;4993493;28;19926;-60
2022/03/28 10:22:04;;;;;;;;;;;;;;;;;;4993528;28;19986;-58
2022/03/28 10:24:30;;;;;;;;;;;;;;;;;;5002153;28;19969;-69
2022/03/28 10:26:56;;;;;;;;;;;;;;;;;;4982604;28;19937;-67
2022/03/28 10:29:22;;;;;;;;;;;;;;;;;;4992606;28;19956;-71
2022/03/28 10:31:49;;;;;;;;;;;;;;;;;;4993487;28;20036;-68
2022/03/28 10:34:15;;;;;;;;;;;;;;;;;;4991663;28;19952;-69
2022/03/28 10:36:41;;;;;;;;;;;;;;;;;;4994318;28;19945;-69
2022/03/28 10:39:08;;;;;;;;;;;;;;;;;;4994051;28;20347;-68
2022/03/28 10:41:34;;;;;;;;;;;;;;;;;;4992370;28;19972;-66
2022/03/28 10:44:00;;;;;;;;;;;;;;;;;;5008489;23;19963;-71
2022/03/28 10:46:26;;;;;;;;;;;;;;;;;;5012036;28;19933;-71
2022/03/28 10:48:52;;;;;;;;;;;;;;;;;;5009144;28;19940;-71
2022/03/28 10:51:18;;;;;;;;;;;;;;;;;;5006321;28;19933;-71
2022/03/28 10:53:46;;;;;;;;;;;;;;;;;;4999484;28;20447;-70
2022/03/28 10:56:12;;;;;;;;;;;;;;;;;;5017581;28;19971;-70
2022/03/28 10:58:39;;;;;;;;;;;;;;;;;;5016149;28;19962;-71
2022/03/28 11:01:05;;;;;;;;;;;;;;;;;;5025787;28;19953;-71
2022/03/28 11:03:31;;;;;;;;;;;;;;;;;;5013337;28;19941;-70
2022/03/28 11:05:58;;;;;;;;;;;;;;;;;;5015197;28;20078;-70
2022/03/28 11:08:24;;;;;;;;;;;;;;;;;;5012246;28;19970;-70
2022/03/28 11:10:50;;;;;;;;;;;;;;;;;;5002690;28;19971;-70
2022/03/28 11:13:17;;;;;;;;;;;;;;;;;;4996504;28;19951;-70
2022/03/28 11:15:44;;;;;;;;;;;;;;;;;;5009914;28;19989;-71
2022/03/28 11:18:11;;;;;;;;;;;;;;;;;;5006529;28;19998;-71
2022/03/28 11:20:37;;;;;;;;;;;;;;;;;;4992876;28;20231;-69
2022/03/28 11:23:03;;;;;;;;;;;;;;;;;;5002135;28;19961;-69
2022/03/28 11:25:29;;;;;;;;;;;;;;;;;;5006733;28;19968;-71
2022/03/28 11:27:56;;;;;;;;;;;;;;;;;;5003739;28;19951;-69
2022/03/28 11:30:22;;;;;;;;;;;;;;;;;;5005443;28;20316;-70
2022/03/28 11:32:48;;;;;;;;;;;;;;;;;;5010374;28;19962;-72
2022/03/28 11:35:14;;;;;;;;;;;;;;;;;;5009639;28;19925;-72
2022/03/28 11:37:40;;;;;;;;;;;;;;;;;;5010762;28;19925;-69
2022/03/28 11:40:07;;;;;;;;;;;;;;;;;;5012325;28;20044;-71
2022/03/28 11:42:33;;;;;;;;;;;;;;;;;;5011934;28;19937;-71
2022/03/28 11:44:59;;;;;;;;;;;;;;;;;;5012081;28;19944;-71
2022/03/28 11:47:25;;;;;;;;;;;;;;;;;;5008768;28;20397;-71
2022/03/28 11:49:51;;;;;;;;;;;;;;;;;;4991749;28;19930;-70
2022/03/28 11:52:17;;;;;;;;;;;;;;;;;;5010791;28;20083;-71
2022/03/28 11:54:44;;;;;;;;;;;;;;;;;;5016073;28;19925;-71
2022/03/28 11:59:54;;;;;;;;;;;;;;;;;;5018207;28;19963;-70
2022/03/28 12:02:20;;;;;;;;;;;;;;;;;;5014478;28;19925;-69
2022/03/28 12:04:46;;;;;;;;;;;;;;;;;;5017563;28;19963;-71
2022/03/28 12:07:13;;;;;;;;;;;;;;;;;;5011699;28;19936;-70
2022/03/28 12:09:39;;;;;;;;;;;;;;;;;;5021615;28;20024;-70
2022/03/28 12:12:05;;;;;;;;;;;;;;;;;;5012732;28;19932;-70
2022/03/28 12:14:31;;;;;;;;;;;;;;;;;;5013352;28;19927;-70
2022/03/28 12:16:57;;;;;;;;;;;;;;;;;;5011627;28;20378;-70
2022/03/28 12:19:23;;;;;;;;;;;;;;;;;;5012434;28;19949;-69
2022/03/28 12:21:49;;;;;;;;;;;;;;;;;;5011538;28;19937;-69
2022/03/28 12:24:16;;;;;;;;;;;;;;;;;;5008522;28;19945;-69
2022/03/28 12:26:42;;;;;;;;;;;;;;;;;;4999685;28;20163;-70
2022/03/28 12:29:08;;;;;;;;;;;;;;;;;;4998767;28;19925;-69
2022/03/28 12:31:34;;;;;;;;;;;;;;;;;;5009252;28;20438;-69
2022/03/28 12:34:00;;;;;;;;;;;;;;;;;;5005148;28;19949;-69
2022/03/28 12:36:28;;;;;;;;;;;;;;;;;;5007232;28;19932;-69
2022/03/28 12:38:56;;;;;;;;;;;;;;;;;;5006423;28;20426;-70
2022/03/28 12:41:26;;;;;;;;;;;;;;;;;;5006407;28;20210;-71
2022/03/28 12:43:53;;;;;;;;;;;;;;;;;;5010448;28;20329;-71
2022/03/28 12:46:19;;;;;;;;;;;;;;;;;;5011518;28;19925;-69
2022/03/28 12:48:46;;;;;;;;;;;;;;;;;;5003435;28;19925;-69
2022/03/28 12:51:12;;;;;;;;;;;;;;;;;;4992628;28;19961;-70
2022/03/28 12:53:38;;;;;;;;;;;;;;;;;;4990854;28;20334;-70
2022/03/28 12:56:08;;;;;;;;;;;;;;;;;;4999200;28;19967;-69
2022/03/28 12:58:34;;;;;;;;;;;;;;;;;;5007396;28;19964;-69
2022/03/28 13:01:00;;;;;;;;;;;;;;;;;;4303888;28;10000853;-71
2022/03/28 13:03:26;;;;;;;;;;;;;;;;;;5000872;28;19954;-70
2022/03/28 13:05:52;;;;;;;;;;;;;;;;;;4996701;28;20062;-69
2022/03/28 13:08:19;;;;;;;;;;;;;;;;;;5005763;28;19969;-70
2022/03/28 13:10:45;;;;;;;;;;;;;;;;;;4986996;28;19975;-70
2022/03/28 13:13:11;;;;;;;;;;;;;;;;;;4999967;28;20002;-69
2022/03/28 13:15:39;;;;;;;;;;;;;;;;;;5002767;28;19973;-70
2022/03/28 13:18:05;;;;;;;;;;;;;;;;;;4999545;28;20056;-70
2022/03/28 13:20:31;;;;;;;;;;;;;;;;;;5007883;28;20047;-70
2022/03/28 13:22:59;;;;;;;;;;;;;;;;;;5007712;28;19946;-69
2022/03/28 13:25:27;;;;;;;;;;;;;;;;;;5001812;28;19962;-69
2022/03/28 13:28:02;;;;;;;;;;;;;;;;;;5005181;28;19963;-70
2022/03/28 13:30:28;;;;;;;;;;;;;;;;;;4993168;28;19929;-69
2022/03/28 13:32:54;;;;;;;;;;;;;;;;;;5003770;28;20030;-70
2022/03/28 13:35:21;;;;;;;;;;;;;;;;;;5006840;28;19961;-70
2022/03/28 13:37:47;;;;;;;;;;;;;;;;;;4999207;28;19929;-69
2022/03/28 13:40:13;;;;;;;;;;;;;;;;;;5005550;28;20515;-70
2022/03/28 13:42:40;;;;;;;;;;;;;;;;;;5007300;28;20415;-69
2022/03/28 13:45:06;;;;;;;;;;;;;;;;;;5007412;28;19970;-70
2022/03/28 13:47:32;;;;;;;;;;;;;;;;;;5005624;28;19947;-70
2022/03/28 13:49:58;;;;;;;;;;;;;;;;;;5006795;28;19952;-71
2022/03/28 13:52:24;;;;;;;;;;;;;;;;;;5007630;28;20464;-70
2022/03/28 13:54:50;;;;;;;;;;;;;;;;;;4998012;28;19965;-71
2022/03/28 13:57:17;;;;;;;;;;;;;;;;;;5003111;28;19942;-69
2022/03/28 13:59:43;;;;;;;;;;;;;;;;;;4999602;28;19954;-70
2022/03/28 14:02:09;;;;;;;;;;;;;;;;;;4995448;28;20044;-69
2022/03/28 14:04:36;;;;;;;;;;;;;;;;;;5000416;28;20318;-70
2022/03/28 14:07:02;;;;;;;;;;;;;;;;;;5002170;28;19948;-69
2022/03/28 14:09:28;;;;;;;;;;;;;;;;;;5010516;28;20036;-71
2022/03/28 14:11:54;;;;;;;;;;;;;;;;;;5009284;28;19933;-69
2022/03/28 14:14:23;;;;;;;;;;;;;;;;;;5005654;28;19964;-69
2022/03/28 14:16:49;;;;;;;;;;;;;;;;;;5008483;28;19948;-70
2022/03/28 14:19:16;;;;;;;;;;;;;;;;;;4993740;28;19925;-71
2022/03/28 14:21:42;;;;;;;;;;;;;;;;;;4997053;28;20451;-72
2022/03/28 14:24:09;;;;;;;;;;;;;;;;;;5009444;28;19936;-71
2022/03/28 14:26:35;;;;;;;;;;;;;;;;;;5007220;28;19929;-72
2022/03/28 14:29:01;;;;;;;;;;;;;;;;;;5008791;28;19962;-70
2022/03/28 14:31:27;;;;;;;;;;;;;;;;;;5008384;28;20072;-73
2022/03/28 14:33:54;;;;;;;;;;;;;;;;;;5000005;28;19926;-72
2022/03/28 14:36:20;;;;;;;;;;;;;;;;;;5007720;28;20377;-70
2022/03/28 14:38:47;;;;;;;;;;;;;;;;;;5010857;28;20367;-74
2022/03/28 14:41:13;;;;;;;;;;;;;;;;;;5007324;28;19930;-71
2022/03/28 14:43:39;;;;;;;;;;;;;;;;;;5007654;28;19937;-71
2022/03/28 14:48:49;;;;;;;;;;;;;;;;;;5000367;28;19939;-71
2022/03/28 14:51:19;;;;;;;;;;;;;;;;;;5006459;28;20103;-70
2022/03/28 14:53:45;;;;;;;;;;;;;;;;;;5014913;28;19966;-71
2022/03/28 14:56:11;;;;;;;;;;;;;;;;;;5008096;28;19936;-70
2022/03/28 14:58:37;;;;;;;;;;;;;;;;;;4998466;28;20204;-71
2022/03/28 15:01:04;;;;;;;;;;;;;;;;;;5004040;28;20421;-72
2022/03/28 15:03:30;;;;;;;;;;;;;;;;;;5010835;28;20393;-70
2022/03/28 15:05:56;;;;;;;;;;;;;;;;;;5015376;28;19949;-70
2022/03/28 15:08:22;;;;;;;;;;;;;;;;;;5010672;28;19945;-71
2022/03/28 15:10:49;;;;;;;;;;;;;;;;;;5009064;28;19965;-73
2022/03/28 15:13:16;;;;;;;;;;;;;;;;;;5011651;28;20410;-71
2022/03/28 15:15:42;;;;;;;;;;;;;;;;;;5003287;28;19991;-72
2022/03/28 15:18:09;;;;;;;;;;;;;;;;;;5007542;28;20054;-70
2022/03/28 15:20:35;;;;;;;;;;;;;;;;;;5002422;28;20272;-70
2022/03/28 15:23:01;;;;;;;;;;;;;;;;;;5008267;28;19965;-70
2022/03/28 15:25:28;;;;;;;;;;;;;;;;;;5008236;28;19965;-72
2022/03/28 15:27:55;;;;;;;;;;;;;;;;;;5012858;28;20354;-70
2022/03/28 15:30:21;;;;;;;;;;;;;;;;;;5002560;28;19974;-69
2022/03/28 15:32:47;;;;;;;;;;;;;;;;;;5003458;28;19965;-70
2022/03/28 15:35:13;;;;;;;;;;;;;;;;;;5010712;28;20292;-70
2022/03/28 15:37:39;;;;;;;;;;;;;;;;;;5010573;28;19932;-71
2022/03/28 15:40:05;;;;;;;;;;;;;;;;;;5010814;28;19950;-73
2022/03/28 15:42:33;;;;;;;;;;;;;;;;;;5015671;28;19982;-70
2022/03/28 15:44:59;;;;;;;;;;;;;;;;;;5008991;28;20000;-69
2022/03/28 15:47:25;;;;;;;;;;;;;;;;;;5005427;28;19975;-72
2022/03/28 15:49:52;;;;;;;;;;;;;;;;;;5006711;28;19962;-70
2022/03/28 15:52:18;;;;;;;;;;;;;;;;;;5001996;28;19990;-72
2022/03/28 15:54:44;;;;;;;;;;;;;;;;;;4998628;28;19965;-70
2022/03/28 15:57:10;;;;;;;;;;;;;;;;;;5008121;28;19949;-70
2022/03/28 15:59:36;;;;;;;;;;;;;;;;;;5005276;28;19933;-69
2022/03/28 16:02:03;;;;;;;;;;;;;;;;;;5004427;28;19945;-72
2022/03/28 16:04:29;;;;;;;;;;;;;;;;;;4993929;28;19934;-72
2022/03/28 16:06:55;;;;;;;;;;;;;;;;;;5000313;28;19937;-69
2022/03/28 16:09:21;;;;;;;;;;;;;;;;;;5000700;28;19977;-69
2022/03/28 16:11:48;;;;;;;;;;;;;;;;;;4994257;28;19934;-72
2022/03/28 16:14:14;;;;;;;;;;;;;;;;;;5000074;28;19941;-69
2022/03/28 16:16:40;;;;;;;;;;;;;;;;;;4995216;28;19936;-69
2022/03/28 16:19:07;;;;;;;;;;;;;;;;;;4997742;28;20015;-68
2022/03/28 16:21:33;;;;;;;;;;;;;;;;;;4994880;28;20033;-70
2022/03/28 16:24:00;;;;;;;;;;;;;;;;;;4997142;28;19925;-71
2022/03/28 16:26:26;;;;;;;;;;;;;;;;;;4995924;28;19930;-70
2022/03/28 16:28:53;;;;;;;;;;;;;;;;;;4995719;28;19929;-73
2022/03/28 16:31:19;;;;;;;;;;;;;;;;;;4995816;28;19937;-73
2022/03/28 16:33:45;;;;;;;;;;;;;;;;;;4995756;28;20020;-70
2022/03/28 16:36:15;;;;;;;;;;;;;;;;;;4995552;28;19967;-71
2022/03/28 16:38:41;;;;;;;;;;;;;;;;;;4993946;28;19929;-73
2022/03/28 16:41:07;;;;;;;;;;;;;;;;;;4993587;28;20396;-69
2022/03/28 16:43:33;;;;;;;;;;;;;;;;;;4997122;28;19935;-72